sensor_id;sensor_type;location;lat;lon;timestamp;pressure;altitude;pressure_sealevel;temperature
30765;BMP180;494;48.744;10.106;2023-11-21T00:04:33;95110.00;;;9.50
30765;BMP180;494;48.744;10.106;2023-11-21T04:59:26;95074.00;;;9.40
30765;BMP180;494;48.744;10.106;2023-11-21T05:02:08;95108.00;;;8.00
30765;BMP180;494;48.744;10.106;2023-11-21T05:08:03;95150.00;;;9.50
30765;BMP180;494;48.744;10.106;2023-11-21T05:10:34;95089.00;;;9.60
30765;BMP180;494;48.744;10.106;2023-11-21T05:13:06;94937.00;;;9.50
30765;BMP180;494;48.744;10.106;2023-11-21T05:18:45;95116.00;;;9.50
30765;BMP180;494;48.744;10.106;2023-11-21T05:24:34;95083.00;;;9.40
30765;BMP180;494;48.744;10.106;2023-11-21T05:30:15;94887.00;;;9.50
30765;BMP180;494;48.744;10.106;2023-11-21T05:33:12;95083.00;;;9.50
30765;BMP180;494;48.744;10.106;2023-11-21T05:35:44;95087.00;;;9.60
30765;BMP180;494;48.744;10.106;2023-11-21T05:38:15;94614.00;;;9.70
30765;BMP180;494;48.744;10.106;2023-11-21T05:50:07;95100.00;;;9.60
30765;BMP180;494;48.744;10.106;2023-11-21T05:52:44;95124.00;;;9.40
30765;BMP180;494;48.744;10.106;2023-11-21T06:04:34;95104.00;;;8.90
30765;BMP180;494;48.744;10.106;2023-11-21T06:07:05;95131.00;;;9.60
30765;BMP180;494;48.744;10.106;2023-11-21T06:15:51;95055.00;;;9.60
30765;BMP180;494;48.744;10.106;2023-11-21T06:21:57;95116.00;;;9.40
30765;BMP180;494;48.744;10.106;2023-11-21T06:24:29;95131.00;;;9.40
30765;BMP180;494;48.744;10.106;2023-11-21T08:47:36;94848.00;;;11.00
30765;BMP180;494;48.744;10.106;2023-11-21T08:50:45;95222.00;;;11.00
30765;BMP180;494;48.744;10.106;2023-11-21T08:53:28;94742.00;;;10.70
30765;BMP180;494;48.744;10.106;2023-11-21T08:56:07;95138.00;;;11.00
30765;BMP180;494;48.744;10.106;2023-11-21T08:58:38;94870.00;;;10.60
30765;BMP180;494;48.744;10.106;2023-11-21T09:01:13;95162.00;;;11.20
30765;BMP180;494;48.744;10.106;2023-11-21T09:03:43;95260.00;;;10.70
30765;BMP180;494;48.744;10.106;2023-11-21T09:06:13;95245.00;;;11.20
30765;BMP180;494;48.744;10.106;2023-11-21T09:09:07;95280.00;;;11.00
30765;BMP180;494;48.744;10.106;2023-11-21T09:11:37;95272.00;;;11.50
30765;BMP180;494;48.744;10.106;2023-11-21T09:14:06;95306.00;;;11.00
30765;BMP180;494;48.744;10.106;2023-11-21T09:16:53;95147.00;;;10.70
30765;BMP180;494;48.744;10.106;2023-11-21T09:19:42;94888.00;;;12.40
30765;BMP180;494;48.744;10.106;2023-11-21T09:22:20;95272.00;;;12.80
30765;BMP180;494;48.744;10.106;2023-11-21T09:24:49;94859.00;;;12.70
30765;BMP180;494;48.744;10.106;2023-11-21T09:27:20;95242.00;;;12.50
30765;BMP180;494;48.744;10.106;2023-11-21T09:30:15;95066.00;;;12.20
30765;BMP180;494;48.744;10.106;2023-11-21T09:32:45;95280.00;;;11.40
30765;BMP180;494;48.744;10.106;2023-11-21T09:35:19;95289.00;;;12.00
30765;BMP180;494;48.744;10.106;2023-11-21T09:37:48;95286.00;;;11.50
30765;BMP180;494;48.744;10.106;2023-11-21T09:40:22;95274.00;;;11.80
30765;BMP180;494;48.744;10.106;2023-11-21T09:42:56;95165.00;;;11.30
30765;BMP180;494;48.744;10.106;2023-11-21T09:45:27;95323.00;;;11.20
30765;BMP180;494;48.744;10.106;2023-11-21T09:47:59;95250.00;;;11.70
30765;BMP180;494;48.744;10.106;2023-11-21T09:50:33;95320.00;;;11.60
30765;BMP180;494;48.744;10.106;2023-11-21T09:53:16;95300.00;;;10.60
30765;BMP180;494;48.744;10.106;2023-11-21T09:55:51;94877.00;;;11.60
30765;BMP180;494;48.744;10.106;2023-11-21T09:58:28;95303.00;;;11.50
30765;BMP180;494;48.744;10.106;2023-11-21T10:01:01;94833.00;;;11.50
30765;BMP180;494;48.744;10.106;2023-11-21T10:03:36;95203.00;;;11.10
30765;BMP180;494;48.744;10.106;2023-11-21T10:06:09;95274.00;;;11.20
30765;BMP180;494;48.744;10.106;2023-11-21T10:08:39;95302.00;;;10.50
30765;BMP180;494;48.744;10.106;2023-11-21T10:11:22;95244.00;;;11.20
30765;BMP180;494;48.744;10.106;2023-11-21T10:13:54;94964.00;;;9.70
30765;BMP180;494;48.744;10.106;2023-11-21T10:16:27;95187.00;;;11.70
30765;BMP180;494;48.744;10.106;2023-11-21T10:18:59;94909.00;;;11.70
30765;BMP180;494;48.744;10.106;2023-11-21T10:21:41;95232.00;;;10.60
30765;BMP180;494;48.744;10.106;2023-11-21T10:24:10;94858.00;;;11.00
30765;BMP180;494;48.744;10.106;2023-11-21T10:26:41;95177.00;;;10.30
30765;BMP180;494;48.744;10.106;2023-11-21T10:29:20;95224.00;;;10.30
30765;BMP180;494;48.744;10.106;2023-11-21T10:31:50;95258.00;;;11.40
30765;BMP180;494;48.744;10.106;2023-11-21T10:34:22;95313.00;;;11.40
30765;BMP180;494;48.744;10.106;2023-11-21T10:36:52;95241.00;;;10.30
30765;BMP180;494;48.744;10.106;2023-11-21T10:39:25;95299.00;;;11.40
30765;BMP180;494;48.744;10.106;2023-11-21T10:42:00;95220.00;;;11.30
30765;BMP180;494;48.744;10.106;2023-11-21T10:44:31;95263.00;;;11.50
30765;BMP180;494;48.744;10.106;2023-11-21T10:47:01;95294.00;;;11.80
30765;BMP180;494;48.744;10.106;2023-11-21T10:49:30;95140.00;;;11.40
30765;BMP180;494;48.744;10.106;2023-11-21T10:52:01;95333.00;;;12.00
30765;BMP180;494;48.744;10.106;2023-11-21T10:54:31;95299.00;;;11.10
30765;BMP180;494;48.744;10.106;2023-11-21T10:57:01;95314.00;;;11.90
30765;BMP180;494;48.744;10.106;2023-11-21T10:59:31;95131.00;;;11.50
30765;BMP180;494;48.744;10.106;2023-11-21T11:02:06;95233.00;;;12.00
30765;BMP180;494;48.744;10.106;2023-11-21T11:04:43;95226.00;;;11.00
30765;BMP180;494;48.744;10.106;2023-11-21T11:07:21;95292.00;;;11.90
30765;BMP180;494;48.744;10.106;2023-11-21T11:09:55;95284.00;;;12.00
30765;BMP180;494;48.744;10.106;2023-11-21T11:12:24;95174.00;;;10.90
30765;BMP180;494;48.744;10.106;2023-11-21T11:14:56;95131.00;;;11.80
30765;BMP180;494;48.744;10.106;2023-11-21T11:17:26;95162.00;;;11.40
30765;BMP180;494;48.744;10.106;2023-11-21T11:19:56;94824.00;;;11.30
30765;BMP180;494;48.744;10.106;2023-11-21T11:22:37;94927.00;;;10.60
30765;BMP180;494;48.744;10.106;2023-11-21T11:25:34;95259.00;;;12.00
30765;BMP180;494;48.744;10.106;2023-11-21T11:28:11;95263.00;;;12.40
30765;BMP180;494;48.744;10.106;2023-11-21T11:31:00;95229.00;;;15.60
30765;BMP180;494;48.744;10.106;2023-11-21T11:33:41;95278.00;;;16.90
30765;BMP180;494;48.744;10.106;2023-11-21T11:36:20;95246.00;;;16.40
30765;BMP180;494;48.744;10.106;2023-11-21T11:39:29;94991.00;;;15.00
30765;BMP180;494;48.744;10.106;2023-11-21T11:42:03;95250.00;;;15.00
30765;BMP180;494;48.744;10.106;2023-11-21T11:44:52;95149.00;;;13.60
30765;BMP180;494;48.744;10.106;2023-11-21T11:47:25;95229.00;;;14.00
30765;BMP180;494;48.744;10.106;2023-11-21T11:50:05;95034.00;;;13.90
30765;BMP180;494;48.744;10.106;2023-11-21T11:52:43;95218.00;;;12.90
30765;BMP180;494;48.744;10.106;2023-11-21T11:55:15;95252.00;;;13.90
30765;BMP180;494;48.744;10.106;2023-11-21T11:57:48;95180.00;;;14.20
30765;BMP180;494;48.744;10.106;2023-11-21T12:00:20;94929.00;;;14.30
30765;BMP180;494;48.744;10.106;2023-11-21T12:02:54;95302.00;;;14.20
30765;BMP180;494;48.744;10.106;2023-11-21T12:05:25;95261.00;;;14.20
30765;BMP180;494;48.744;10.106;2023-11-21T12:07:58;95127.00;;;13.80
30765;BMP180;494;48.744;10.106;2023-11-21T12:13:29;95316.00;;;12.30
30765;BMP180;494;48.744;10.106;2023-11-21T12:15:59;95293.00;;;12.80
30765;BMP180;494;48.744;10.106;2023-11-21T12:18:29;95306.00;;;13.20
30765;BMP180;494;48.744;10.106;2023-11-21T12:20:58;95211.00;;;13.00
30765;BMP180;494;48.744;10.106;2023-11-21T12:23:27;94968.00;;;13.40
30765;BMP180;494;48.744;10.106;2023-11-21T12:25:57;95283.00;;;14.60
30765;BMP180;494;48.744;10.106;2023-11-21T12:28:27;95256.00;;;14.60
30765;BMP180;494;48.744;10.106;2023-11-21T12:30:57;95206.00;;;13.90
30765;BMP180;494;48.744;10.106;2023-11-21T12:33:44;95229.00;;;14.00
30765;BMP180;494;48.744;10.106;2023-11-21T12:36:14;95254.00;;;14.20
30765;BMP180;494;48.744;10.106;2023-11-21T12:38:44;95247.00;;;14.40
30765;BMP180;494;48.744;10.106;2023-11-21T12:41:16;95271.00;;;14.50
30765;BMP180;494;48.744;10.106;2023-11-21T12:43:47;95207.00;;;15.00
30765;BMP180;494;48.744;10.106;2023-11-21T12:46:16;95223.00;;;15.00
30765;BMP180;494;48.744;10.106;2023-11-21T12:48:47;95036.00;;;14.80
30765;BMP180;494;48.744;10.106;2023-11-21T12:51:20;95299.00;;;14.30
30765;BMP180;494;48.744;10.106;2023-11-21T12:53:50;95301.00;;;13.20
30765;BMP180;494;48.744;10.106;2023-11-21T12:56:22;95328.00;;;13.20
30765;BMP180;494;48.744;10.106;2023-11-21T12:58:54;95338.00;;;13.10
30765;BMP180;494;48.744;10.106;2023-11-21T13:01:26;95288.00;;;12.90
30765;BMP180;494;48.744;10.106;2023-11-21T13:03:58;94882.00;;;13.20
30765;BMP180;494;48.744;10.106;2023-11-21T13:06:27;95214.00;;;12.80
30765;BMP180;494;48.744;10.106;2023-11-21T13:09:01;95313.00;;;12.80
30765;BMP180;494;48.744;10.106;2023-11-21T13:14:10;95317.00;;;12.70
30765;BMP180;494;48.744;10.106;2023-11-21T13:16:42;95410.00;;;12.60
30765;BMP180;494;48.744;10.106;2023-11-21T13:19:14;95301.00;;;12.60
30765;BMP180;494;48.744;10.106;2023-11-21T13:21:44;94923.00;;;12.20
30765;BMP180;494;48.744;10.106;2023-11-21T13:24:14;95339.00;;;11.50
30765;BMP180;494;48.744;10.106;2023-11-21T13:26:44;95327.00;;;12.40
30765;BMP180;494;48.744;10.106;2023-11-21T13:29:16;95320.00;;;12.30
30765;BMP180;494;48.744;10.106;2023-11-21T13:31:47;95243.00;;;12.30
30765;BMP180;494;48.744;10.106;2023-11-21T13:34:20;95334.00;;;11.90
30765;BMP180;494;48.744;10.106;2023-11-21T13:36:58;95247.00;;;12.30
30765;BMP180;494;48.744;10.106;2023-11-21T13:39:28;95358.00;;;12.40
30765;BMP180;494;48.744;10.106;2023-11-21T13:41:59;94923.00;;;12.20
30765;BMP180;494;48.744;10.106;2023-11-21T13:44:34;95261.00;;;12.70
30765;BMP180;494;48.744;10.106;2023-11-21T13:47:07;95396.00;;;11.60
30765;BMP180;494;48.744;10.106;2023-11-21T13:49:36;95349.00;;;12.60
30765;BMP180;494;48.744;10.106;2023-11-21T13:52:08;95356.00;;;11.80
30765;BMP180;494;48.744;10.106;2023-11-21T13:54:43;95305.00;;;11.00
30765;BMP180;494;48.744;10.106;2023-11-21T13:57:12;95305.00;;;11.80
30765;BMP180;494;48.744;10.106;2023-11-21T13:59:45;95338.00;;;11.60
30765;BMP180;494;48.744;10.106;2023-11-21T14:02:18;95112.00;;;11.70
30765;BMP180;494;48.744;10.106;2023-11-21T14:05:01;95389.00;;;11.70
30765;BMP180;494;48.744;10.106;2023-11-21T14:07:37;95395.00;;;11.70
30765;BMP180;494;48.744;10.106;2023-11-21T14:10:07;95174.00;;;11.50
30765;BMP180;494;48.744;10.106;2023-11-21T14:12:41;95251.00;;;11.40
30765;BMP180;494;48.744;10.106;2023-11-21T14:15:13;95235.00;;;11.40
30765;BMP180;494;48.744;10.106;2023-11-21T14:17:47;95258.00;;;11.30
30765;BMP180;494;48.744;10.106;2023-11-21T14:20:19;95415.00;;;11.20
30765;BMP180;494;48.744;10.106;2023-11-21T14:23:18;95374.00;;;11.20
30765;BMP180;494;48.744;10.106;2023-11-21T14:26:01;95038.00;;;11.30
30765;BMP180;494;48.744;10.106;2023-11-21T14:28:32;95411.00;;;11.40
30765;BMP180;494;48.744;10.106;2023-11-21T15:54:32;95052.00;;;9.70
30765;BMP180;494;48.744;10.106;2023-11-21T16:00:07;95345.00;;;10.60
30765;BMP180;494;48.744;10.106;2023-11-21T16:03:21;95074.00;;;10.70
30765;BMP180;494;48.744;10.106;2023-11-21T16:07:12;95105.00;;;10.20
30765;BMP180;494;48.744;10.106;2023-11-21T16:23:13;95045.00;;;10.00
30765;BMP180;494;48.744;10.106;2023-11-21T16:55:30;94793.00;;;9.60
30765;BMP180;494;48.744;10.106;2023-11-21T19:05:17;95646.00;;;9.30
30765;BMP180;494;48.744;10.106;2023-11-21T19:07:46;95518.00;;;9.10
30765;BMP180;494;48.744;10.106;2023-11-21T19:10:16;95534.00;;;8.80
30765;BMP180;494;48.744;10.106;2023-11-21T19:12:46;95676.00;;;9.00
30765;BMP180;494;48.744;10.106;2023-11-21T19:15:15;95506.00;;;9.20
30765;BMP180;494;48.744;10.106;2023-11-21T19:17:46;95371.00;;;9.20
30765;BMP180;494;48.744;10.106;2023-11-21T19:20:16;95464.00;;;8.80
30765;BMP180;494;48.744;10.106;2023-11-21T19:22:46;95607.00;;;8.80
30765;BMP180;494;48.744;10.106;2023-11-21T19:25:16;95363.00;;;9.00
30765;BMP180;494;48.744;10.106;2023-11-21T19:27:47;95676.00;;;8.70
30765;BMP180;494;48.744;10.106;2023-11-21T19:30:17;95680.00;;;9.20
30765;BMP180;494;48.744;10.106;2023-11-21T19:32:47;95659.00;;;9.30
30765;BMP180;494;48.744;10.106;2023-11-21T19:35:19;95813.00;;;9.40
30765;BMP180;494;48.744;10.106;2023-11-21T19:37:48;95698.00;;;9.50
30765;BMP180;494;48.744;10.106;2023-11-21T19:40:20;95744.00;;;9.40
30765;BMP180;494;48.744;10.106;2023-11-21T19:42:51;95695.00;;;9.10
30765;BMP180;494;48.744;10.106;2023-11-21T19:45:22;95684.00;;;9.50
30765;BMP180;494;48.744;10.106;2023-11-21T19:47:54;95718.00;;;9.10
30765;BMP180;494;48.744;10.106;2023-11-21T19:50:26;95166.00;;;8.10
30765;BMP180;494;48.744;10.106;2023-11-21T19:52:56;95727.00;;;8.00
30765;BMP180;494;48.744;10.106;2023-11-21T19:55:29;95762.00;;;9.20
30765;BMP180;494;48.744;10.106;2023-11-21T19:58:01;95746.00;;;9.30
30765;BMP180;494;48.744;10.106;2023-11-21T20:00:32;95690.00;;;10.00
30765;BMP180;494;48.744;10.106;2023-11-21T20:03:03;95743.00;;;9.80
30765;BMP180;494;48.744;10.106;2023-11-21T20:05:34;95102.00;;;9.90
30765;BMP180;494;48.744;10.106;2023-11-21T20:08:05;95759.00;;;9.60
30765;BMP180;494;48.744;10.106;2023-11-21T20:10:40;95341.00;;;9.80
30765;BMP180;494;48.744;10.106;2023-11-21T20:13:13;95376.00;;;9.10
30765;BMP180;494;48.744;10.106;2023-11-21T20:15:44;95537.00;;;9.90
30765;BMP180;494;48.744;10.106;2023-11-21T20:18:18;95710.00;;;9.70
30765;BMP180;494;48.744;10.106;2023-11-21T20:20:52;95677.00;;;9.30
30765;BMP180;494;48.744;10.106;2023-11-21T20:23:21;95721.00;;;9.80
30765;BMP180;494;48.744;10.106;2023-11-21T20:25:54;95740.00;;;9.30
30765;BMP180;494;48.744;10.106;2023-11-21T20:28:27;95792.00;;;9.80
30765;BMP180;494;48.744;10.106;2023-11-21T20:30:59;95365.00;;;8.80
30765;BMP180;494;48.744;10.106;2023-11-21T20:33:30;95763.00;;;8.90
30765;BMP180;494;48.744;10.106;2023-11-21T20:36:03;95808.00;;;9.60
30765;BMP180;494;48.744;10.106;2023-11-21T20:38:34;95871.00;;;9.10
30765;BMP180;494;48.744;10.106;2023-11-21T20:41:05;95808.00;;;9.80
30765;BMP180;494;48.744;10.106;2023-11-21T20:43:40;95324.00;;;9.60
30765;BMP180;494;48.744;10.106;2023-11-21T20:46:14;95588.00;;;8.30
30765;BMP180;494;48.744;10.106;2023-11-21T20:48:50;95832.00;;;9.80
30765;BMP180;494;48.744;10.106;2023-11-21T20:51:25;95202.00;;;9.60
30765;BMP180;494;48.744;10.106;2023-11-21T20:53:59;95798.00;;;9.60
30765;BMP180;494;48.744;10.106;2023-11-21T20:56:32;95682.00;;;9.60
30765;BMP180;494;48.744;10.106;2023-11-21T20:59:05;95757.00;;;9.50
30765;BMP180;494;48.744;10.106;2023-11-21T21:01:36;95612.00;;;9.00
30765;BMP180;494;48.744;10.106;2023-11-21T21:04:06;95624.00;;;9.40
30765;BMP180;494;48.744;10.106;2023-11-21T21:06:50;95601.00;;;9.60
30765;BMP180;494;48.744;10.106;2023-11-21T21:09:23;95778.00;;;9.60
30765;BMP180;494;48.744;10.106;2023-11-21T21:11:55;95682.00;;;9.40
30765;BMP180;494;48.744;10.106;2023-11-21T21:14:26;95810.00;;;9.60
30765;BMP180;494;48.744;10.106;2023-11-21T21:16:59;95772.00;;;9.70
30765;BMP180;494;48.744;10.106;2023-11-21T21:19:33;95706.00;;;9.60
30765;BMP180;494;48.744;10.106;2023-11-21T21:22:05;95502.00;;;9.60
30765;BMP180;494;48.744;10.106;2023-11-21T21:24:34;95755.00;;;9.80
30765;BMP180;494;48.744;10.106;2023-11-21T21:27:04;95781.00;;;9.70
30765;BMP180;494;48.744;10.106;2023-11-21T21:29:36;95228.00;;;8.40
30765;BMP180;494;48.744;10.106;2023-11-21T21:32:08;95300.00;;;9.40
30765;BMP180;494;48.744;10.106;2023-11-21T21:34:38;95875.00;;;9.70
30765;BMP180;494;48.744;10.106;2023-11-21T21:37:12;95790.00;;;9.40
30765;BMP180;494;48.744;10.106;2023-11-21T21:39:41;95783.00;;;9.60
30765;BMP180;494;48.744;10.106;2023-11-21T21:42:13;95817.00;;;9.70
30765;BMP180;494;48.744;10.106;2023-11-21T21:44:42;95465.00;;;9.60
30765;BMP180;494;48.744;10.106;2023-11-21T21:47:17;95355.00;;;9.30
30765;BMP180;494;48.744;10.106;2023-11-21T21:49:47;95820.00;;;9.50
30765;BMP180;494;48.744;10.106;2023-11-21T21:52:34;95879.00;;;9.50
30765;BMP180;494;48.744;10.106;2023-11-21T21:55:11;95804.00;;;9.60
30765;BMP180;494;48.744;10.106;2023-11-21T21:57:45;95606.00;;;9.60
30765;BMP180;494;48.744;10.106;2023-11-21T22:00:19;95613.00;;;9.80
30765;BMP180;494;48.744;10.106;2023-11-21T22:02:52;95758.00;;;9.70
30765;BMP180;494;48.744;10.106;2023-11-21T22:05:37;95792.00;;;9.60
30765;BMP180;494;48.744;10.106;2023-11-21T22:08:10;95789.00;;;9.70
30765;BMP180;494;48.744;10.106;2023-11-21T22:10:46;95732.00;;;9.80
30765;BMP180;494;48.744;10.106;2023-11-21T22:13:17;95783.00;;;9.70
30765;BMP180;494;48.744;10.106;2023-11-21T22:15:50;95784.00;;;9.50
30765;BMP180;494;48.744;10.106;2023-11-21T22:18:23;95807.00;;;9.50
30765;BMP180;494;48.744;10.106;2023-11-21T22:21:00;95801.00;;;9.70
30765;BMP180;494;48.744;10.106;2023-11-21T22:23:58;95777.00;;;9.60
30765;BMP180;494;48.744;10.106;2023-11-21T22:26:36;95802.00;;;9.20
30765;BMP180;494;48.744;10.106;2023-11-21T22:29:09;95815.00;;;9.80
30765;BMP180;494;48.744;10.106;2023-11-21T22:31:58;95372.00;;;9.80
30765;BMP180;494;48.744;10.106;2023-11-21T22:34:33;95703.00;;;9.80
30765;BMP180;494;48.744;10.106;2023-11-21T22:37:09;95774.00;;;9.70
30765;BMP180;494;48.744;10.106;2023-11-21T22:39:48;95803.00;;;9.80
30765;BMP180;494;48.744;10.106;2023-11-21T22:42:37;95775.00;;;9.70
30765;BMP180;494;48.744;10.106;2023-11-21T22:45:25;95780.00;;;9.30
30765;BMP180;494;48.744;10.106;2023-11-21T22:47:56;95880.00;;;9.60
30765;BMP180;494;48.744;10.106;2023-11-21T22:50:28;95871.00;;;8.40
30765;BMP180;494;48.744;10.106;2023-11-21T22:53:01;95428.00;;;9.70
30765;BMP180;494;48.744;10.106;2023-11-21T22:55:40;95645.00;;;9.80
30765;BMP180;494;48.744;10.106;2023-11-21T22:58:21;95216.00;;;9.80
30765;BMP180;494;48.744;10.106;2023-11-21T23:00:56;95811.00;;;9.70
30765;BMP180;494;48.744;10.106;2023-11-21T23:03:34;95802.00;;;9.70
30765;BMP180;494;48.744;10.106;2023-11-21T23:06:19;95827.00;;;9.80
30765;BMP180;494;48.744;10.106;2023-11-21T23:08:56;95812.00;;;9.60
30765;BMP180;494;48.744;10.106;2023-11-21T23:11:33;95877.00;;;9.70
30765;BMP180;494;48.744;10.106;2023-11-21T23:14:02;95736.00;;;9.60
30765;BMP180;494;48.744;10.106;2023-11-21T23:16:36;95784.00;;;9.70
30765;BMP180;494;48.744;10.106;2023-11-21T23:19:10;95829.00;;;9.70
30765;BMP180;494;48.744;10.106;2023-11-21T23:21:46;95750.00;;;9.70
30765;BMP180;494;48.744;10.106;2023-11-21T23:24:26;95828.00;;;9.50
30765;BMP180;494;48.744;10.106;2023-11-21T23:27:12;95901.00;;;9.70
30765;BMP180;494;48.744;10.106;2023-11-21T23:29:41;95825.00;;;9.70
30765;BMP180;494;48.744;10.106;2023-11-21T23:32:16;95850.00;;;9.70
30765;BMP180;494;48.744;10.106;2023-11-21T23:34:52;95388.00;;;9.70
30765;BMP180;494;48.744;10.106;2023-11-21T23:37:46;95843.00;;;9.60
30765;BMP180;494;48.744;10.106;2023-11-21T23:40:27;95542.00;;;9.70
30765;BMP180;494;48.744;10.106;2023-11-21T23:43:06;95919.00;;;7.60
30765;BMP180;494;48.744;10.106;2023-11-21T23:45:53;95795.00;;;9.60
30765;BMP180;494;48.744;10.106;2023-11-21T23:48:31;95883.00;;;8.00
30765;BMP180;494;48.744;10.106;2023-11-21T23:51:03;95811.00;;;8.70
30765;BMP180;494;48.744;10.106;2023-11-21T23:53:34;95958.00;;;9.60
30765;BMP180;494;48.744;10.106;2023-11-21T23:56:08;95215.00;;;8.60
30765;BMP180;494;48.744;10.106;2023-11-21T23:59:14;95824.00;;;9.60
